Latest Coastal Weather Observations for Bundaberg

IDQ60701

Issued at 4:45 am EST Wednesday 22 October 2014 (issued every 10 minutes, with the page automatically refreshed every 10 minutes)

About coastal observations | Map of coastal stations | Coastal observations for QLD | Marine services | Other Formats
Station Details ID: 039128 Name: BUNDABERG AERO Lat: -24.91 Lon: 152.32 Height: 30.82 m
Data from the previous 72 hours. | See also: Recent months at Bundaberg
Date/Time
EST
Temp

°C
Wind Pressure Rain
since 9am
mm
Weather Cloud Vis
km
Sea
Height
m
Swell
Dir
 
Speed
knots
Gust
knots
hPa Trend Height
m
Period
s
Dir
22/04:30am 16.5 S 6 9 1022.6 - 0.2 - Partly cloudy 10 - - - -
22/04:00am 16.6 S 6 8 1022.6 - 0.2 - Partly cloudy 10 - - - -
22/03:30am 16.9 S 6 9 1022.6 - 0.2 - Partly cloudy 10 - - - -
22/03:00am 17.0 S 6 9 1022.7 - 0.2 - Partly cloudy 10 - - - -
22/02:30am 17.2 S 7 10 1022.9 - 0.2 - Partly cloudy 10 - - - -
22/02:00am 17.0 S 6 9 1023.2 - 0.2 - Partly cloudy 10 - - - -
22/01:30am 17.1 S 8 11 1023.5 - 0.2 - - 10 - - - -
22/01:00am 17.3 S 8 12 1023.8 - 0.2 - - 10 - - - -
22/12:30am 17.7 S 7 11 1024.0 - 0.2 - Partly cloudy 10 - - - -
22/12:00am 18.1 S 7 9 1024.5 - 0.2 - Mostly clear 10 - - - -
 
Date/Time
EST
Temp

°C
Wind Pressure Rain
since 9am
mm
Weather Cloud Vis
km
Sea
Height
m
Swell
Dir
 
Speed
knots
Gust
knots
hPa Trend Height
m
Period
s
Dir
21/11:30pm 18.4 SSE 7 9 1024.8 - 0.2 - Partly cloudy 10 - - - -
21/11:00pm 18.7 SSE 8 11 1025.1 - 0.2 - Partly cloudy 10 - - - -
21/10:30pm 18.8 SSE 9 13 1025.4 - 0.2 - Partly cloudy 10 - - - -
21/10:00pm 19.1 S 6 9 1025.3 - 0.0 - Partly cloudy 10 - - - -
21/09:30pm 19.4 S 6 8 1025.4 - 0.0 - Partly cloudy 10 - - - -
21/09:00pm 20.0 SSE 7 9 1025.3 - 0.0 - Cloudy 10 - - - -
21/08:30pm 19.7 S 6 8 1025.2 - 0.0 - Partly cloudy 10 - - - -
21/08:00pm 19.9 SSE 8 11 1025.0 - 0.0 - Partly cloudy 10 - - - -
21/07:30pm 20.0 SSE 9 12 1024.8 - 0.0 - Partly cloudy 10 - - - -
21/07:00pm 20.3 SSE 7 10 1024.5 - 0.0 - Partly cloudy 10 - - - -
21/06:30pm 21.4 SE 12 17 1024.2 - 0.0 - Partly cloudy 10 - - - -
21/06:00pm 22.2 ESE 11 15 1023.7 - 0.0 - Cloudy 10 - - - -
21/05:30pm 22.7 ESE 13 17 1023.7 - 0.0 - Partly cloudy 10 - - - -
21/05:00pm 22.9 E 12 19 1023.3 - 0.0 - Partly cloudy 10 - - - -
21/04:30pm 23.3 ESE 15 18 1023.1 - 0.0 - Partly cloudy 10 - - - -
21/04:00pm 23.6 ESE 17 21 1022.9 - 0.0 - Partly cloudy 10 - - - -
21/03:30pm 23.7 ESE 16 23 1022.8 - 0.0 - Partly cloudy 10 - - - -
21/03:00pm 24.1 ESE 16 22 1022.8 - 0.0 - Mostly cloudy 10 - - - -
21/02:30pm 25.3 ESE 15 21 1022.8 - 0.0 - Partly cloudy 10 - - - -
21/02:00pm 24.7 ESE 17 23 1022.9 - 0.0 - Cloudy 10 - - - -
21/01:35pm 24.8 ESE 17 27 1023.0 - 0.0 - Cloudy 10 - - - -
21/01:30pm 25.2 ESE 18 26 1023.0 - 0.0 - Cloudy 10 - - - -
21/01:00pm 26.0 E 18 24 1023.3 - 0.0 - Cloudy 10 - - - -
21/12:30pm 25.6 ESE 16 23 1023.8 - 0.0 - Cloudy 10 - - - -
21/12:00pm 26.0 ESE 18 22 1024.2 - 0.0 - Mostly cloudy 10 - - - -
21/11:41am 27.0 ESE 16 28 1024.4 - 0.0 - Cloudy 10 - - - -
21/11:30am 26.4 ESE 17 23 1024.5 - 0.0 - Cloudy 10 - - - -
21/11:14am 25.5 E 16 26 1024.6 - 0.0 - Cloudy 10 - - - -
21/11:00am 25.4 ESE 15 23 1024.9 - 0.0 - Partly cloudy 10 - - - -
21/10:30am 26.0 ESE 15 21 1025.1 - 0.0 - Partly cloudy 10 - - - -
21/10:04am 26.0 ESE 15 25 1025.3 - 0.0 - - 10 - - - -
21/10:00am 25.4 ESE 16 24 1025.4 - 0.0 - - 10 - - - -
21/09:30am 24.8 ESE 16 25 1025.7 - 0.0 - - 10 - - - -
21/09:00am 23.7 ESE 14 19 1025.9 - 0.0 - Mostly clear 10 - - - -
21/08:30am 23.4 ESE 16 21 1025.6 - 0.0 - - 10 - - - -
21/08:00am 23.5 SE 13 18 1025.6 - 0.0 - - 10 - - - -
21/07:30am 22.1 SE 10 14 1025.5 - 0.0 - - 10 - - - -
21/07:00am 20.2 SSE 9 11 1025.2 - 0.0 - Partly cloudy 10 - - - -
21/06:30am 18.4 S 6 8 1024.9 - 0.0 - - 10 - - - -
21/06:00am 16.2 SSE 5 8 1024.6 - 0.0 - Mostly clear 10 - - - -
21/05:30am 15.5 SSE 7 9 1024.3 - 0.0 - - 10 - - - -
21/05:00am 15.8 SSE 7 9 1023.9 - 0.0 - - 10 - - - -
21/04:30am 16.5 SSE 8 11 1023.6 - 0.0 - Partly cloudy 10 - - - -
21/04:00am 17.0 SSE 9 12 1023.3 - 0.0 - Partly cloudy 10 - - - -
21/03:30am 16.0 SSE 7 10 1023.5 - 0.0 - - 10 - - - -
21/03:00am 15.9 SSE 7 11 1023.5 - 0.0 - Mostly clear 10 - - - -
21/02:30am 16.0 SSE 7 9 1023.6 - 0.0 - - 10 - - - -
21/02:00am 16.0 SSE 7 10 1023.7 - 0.0 - Partly cloudy 10 - - - -
21/01:30am 15.9 SSE 6 8 1023.9 - 0.0 - Partly cloudy 10 - - - -
21/01:00am 16.5 SSE 6 8 1024.2 - 0.0 - Partly cloudy 10 - - - -
21/12:30am 15.7 SSE 6 9 1024.4 - 0.0 - Partly cloudy 10 - - - -
21/12:00am 16.1 SSE 6 8 1024.7 - 0.0 - Mostly clear 10 - - - -
 
Date/Time
EST
Temp

°C
Wind Pressure Rain
since 9am
mm
Weather Cloud Vis
km
Sea
Height
m
Swell
Dir
 
Speed
knots
Gust
knots
hPa Trend Height
m
Period
s
Dir
20/11:30pm 16.8 SSE 7 9 1025.0 - 0.0 - Partly cloudy 10 - - - -
20/11:00pm 16.7 S 6 8 1025.2 - 0.0 - Partly cloudy 10 - - - -
20/10:30pm 16.9 S 7 9 1025.3 - 0.0 - Partly cloudy 10 - - - -
20/10:00pm 17.4 S 6 8 1025.2 - 0.0 - Partly cloudy 10 - - - -
20/09:30pm 17.2 S 4 5 1025.0 - 0.0 - - 10 - - - -
20/09:00pm 18.7 SE 4 5 1024.6 - 0.0 - - 10 - - - -
20/08:30pm 19.3 ESE 8 9 1024.2 - 0.0 - - 10 - - - -
20/08:00pm 19.5 E 8 10 1023.8 - 0.0 - - 10 - - - -
20/07:30pm 20.2 E 8 10 1023.4 - 0.0 - - 10 - - - -
20/07:00pm 20.4 E 8 11 1023.1 - 0.0 - - 10 - - - -
20/06:30pm 21.0 E 7 10 1022.6 - 0.0 - - 10 - - - -
20/06:00pm 21.6 ENE 8 10 1022.1 - 0.0 - - 10 - - - -
20/05:30pm 22.4 ENE 11 14 1021.7 - 0.0 - - 10 - - - -
20/05:00pm 23.2 ENE 11 14 1021.4 - 0.0 - - 10 - - - -
20/04:30pm 24.0 E 11 18 1021.2 - 0.0 - - 10 - - - -
20/04:00pm 24.2 ENE 12 16 1021.0 - 0.0 - - 10 - - - -
20/03:30pm 24.5 E 13 16 1020.9 - 0.0 - - 10 - - - -
20/03:00pm 25.0 E 13 19 1020.7 - 0.0 - - 10 - - - -
20/02:30pm 25.2 E 13 18 1020.9 - 0.0 - - 10 - - - -
20/02:00pm 25.1 E 13 18 1021.4 - 0.0 - - 10 - - - -
20/01:30pm 25.6 E 13 19 1021.7 - 0.0 - - 10 - - - -
20/01:00pm 25.4 E 12 20 1022.1 - 0.0 - - 10 - - - -
20/12:30pm 25.5 E 13 18 1022.5 - 0.0 - - 10 - - - -
20/12:00pm 25.6 E 11 18 1022.8 - 0.0 - - 10 - - - -
20/11:30am 24.6 E 11 17 1023.3 - 0.0 - - 10 - - - -
20/11:00am 24.5 E 11 17 1023.8 - 0.0 - - 10 - - - -
20/10:30am 24.3 E 13 18 1024.3 - 0.0 - - 10 - - - -
20/10:00am 24.5 ESE 13 21 1024.7 - 0.0 - - 10 - - - -
20/09:30am 23.2 ESE 11 17 1025.0 - 0.0 - - 10 - - - -
20/09:00am 23.4 ESE 11 17 1025.3 - 0.0 - - 10 - - - -
20/08:30am 23.2 E 9 19 1025.4 - 0.0 - Partly cloudy 10 - - - -
20/08:00am 21.6 ESE 11 15 1025.2 - 0.0 - - 10 - - - -
20/07:30am 20.6 SSE 7 9 1025.3 - 0.0 - - 10 - - - -
20/07:00am 18.0 S 6 7 1025.0 - 0.0 - - 10 - - - -
20/06:30am 16.1 S 6 8 1024.7 - 0.0 - Partly cloudy 10 - - - -
20/06:00am 14.5 S 6 8 1024.5 - 0.0 - Mostly clear 10 - - - -
20/05:30am 13.7 SSW 6 8 1024.2 - 0.0 - Partly cloudy 10 - - - -
20/05:00am 13.3 S 5 7 1023.8 - 0.0 - Partly cloudy 10 - - - -
20/04:30am 13.4 S 6 8 1023.5 - 0.0 - - 10 - - - -
20/04:00am 13.8 S 6 9 1023.4 - 0.0 - - 10 - - - -
20/03:30am 13.7 S 6 7 1023.5 - 0.0 - - 10 - - - -
20/03:00am 13.9 S 6 8 1023.4 - 0.0 - - 10 - - - -
20/02:30am 14.0 S 6 7 1023.5 - 0.0 - - 10 - - - -
20/02:00am 14.5 S 6 7 1023.6 - 0.0 - - 10 - - - -
20/01:30am 14.4 S 4 5 1023.8 - 0.0 - - 10 - - - -
20/01:00am 14.9 S 5 7 1024.1 - 0.0 - Partly cloudy 10 - - - -
20/12:30am 14.9 S 6 7 1024.6 - 0.0 - Partly cloudy 10 - - - -
20/12:00am 15.5 S 6 8 1024.7 - 0.0 - Mostly clear 10 - - - -
 
Date/Time
EST
Temp

°C
Wind Pressure Rain
since 9am
mm
Weather Cloud Vis
km
Sea
Height
m
Swell
Dir
 
Speed
knots
Gust
knots
hPa Trend Height
m
Period
s
Dir
19/11:30pm 15.6 S 6 7 1025.0 - 0.0 - - 10 - - - -
19/11:00pm 15.9 S 6 7 1025.2 - 0.0 - - 10 - - - -
19/10:30pm 15.9 S 6 7 1025.4 - 0.0 - - 10 - - - -
19/10:00pm 16.5 S 4 6 1025.4 - 0.0 - - 10 - - - -
19/09:30pm 17.6 SE 6 6 1025.5 - 0.0 - - 10 - - - -
19/09:00pm 18.8 ESE 8 11 1025.4 - 0.0 - - 10 - - - -
19/08:30pm 19.3 ESE 9 12 1025.3 - 0.0 - - 10 - - - -
19/08:00pm 19.9 E 11 14 1024.9 - 0.0 - - 10 - - - -
19/07:30pm 20.2 E 12 15 1024.6 - 0.0 - - 10 - - - -
19/07:00pm 20.5 ESE 15 19 1024.1 - 0.0 - - 10 - - - -
19/06:30pm 20.8 ESE 14 20 1024.0 - 0.0 - - 10 - - - -
19/06:00pm 21.2 ESE 16 21 1023.7 - 0.0 - - 10 - - - -
19/05:30pm 21.8 E 16 22 1023.1 - 0.0 - - 10 - - - -
19/05:00pm 22.6 ESE 19 25 1022.8 - 0.0 - - 10 - - - -
19/04:30pm 23.5 ESE 18 24 1022.4 - 0.0 - - 10 - - - -
19/04:00pm 24.0 E 18 25 1022.3 - 0.0 - - 10 - - - -
19/03:30pm 24.3 E 19 25 1022.1 - 0.0 - - 10 - - - -
19/03:00pm 24.3 E 20 25 1022.0 - 0.0 - - 10 - - - -
19/02:30pm 25.3 E 17 22 1022.1 - 0.0 - - 10 - - - -
19/02:00pm 25.5 E 16 23 1022.5 - 0.0 - Partly cloudy 10 - - - -
19/01:30pm 25.6 E 18 25 1022.9 - 0.0 - - 10 - - - -
19/01:00pm 25.8 ESE 17 21 1023.3 - 0.0 - - 10 - - - -
19/12:30pm 25.7 E 19 26 1023.6 - 0.0 - Partly cloudy 10 - - - -
19/12:00pm 25.4 ESE 17 25 1024.0 - 0.0 - Partly cloudy 10 - - - -
19/11:30am 25.1 E 17 23 1024.4 - 0.0 - Partly cloudy 10 - - - -
19/11:00am 25.1 ESE 16 20 1024.7 - 0.0 - Partly cloudy 10 - - - -
19/10:30am 24.9 E 16 21 1025.2 - 0.0 - Partly cloudy 10 - - - -
19/10:00am 25.2 E 17 22 1025.4 - 0.0 - Partly cloudy 10 - - - -
19/09:30am 24.6 ESE 16 23 1025.8 - 0.0 - Partly cloudy 10 - - - -
19/09:00am 23.7 ESE 15 21 1026.1 - 0.6 - Mostly cloudy 10 - - - -
19/08:30am 23.1 SE 10 14 1026.3 - 0.6 - Partly cloudy 10 - - - -
19/08:00am 20.1 SE 14 18 1026.4 - 0.6 - Partly cloudy 10 - - - -
19/07:30am 21.2 SSE 10 14 1026.0 - 0.6 - - 10 - - - -
19/07:00am 20.2 S 7 11 1025.8 - 0.6 - - 10 - - - -
19/06:30am 18.7 S 7 11 1025.5 - 0.6 - Partly cloudy 10 - - - -
19/06:00am 17.5 S 9 13 1025.4 - 0.6 Showers Cloudy 10 - - - -
19/05:30am 17.2 SSE 7 10 1024.8 - 0.6 - Cloudy 10 - - - -
19/05:00am 17.1 S 6 9 1024.5 - 0.6 - Cloudy 10 - - - -

Other Formats:

Comma delimited format used in spreadsheet applications
http://www.bom.gov.au/fwo/IDQ60701/IDQ60701.94387.axf

JavaScript Object Notation format (JSON) in row-major order
http://www.bom.gov.au/fwo/IDQ60701/IDQ60701.94387.json